Latest Weather Observations for Lord Howe Island

IDN60801

Issued at 10:22 am EDT Sunday 17 February 2019 (issued every 10 minutes, with the page automatically refreshed every 10 minutes)

About weather observations | Map of weather stations | Latest weather observations for NSW | Other Formats
Station Details ID: 200839 Name: LORD HOWE ISLAND AERO Lat: -31.54 Lon: 159.08 Height: 5.0 m
Data from the previous 72 hours. | See also: Recent months at Lord Howe Island
Date/Time
EDT
Temp
°C
App
Temp
°C
Dew
Point
°C
Rel
Hum
%
Delta-T
°C
Wind Press
QNH
hPa
Press
MSL
hPa
Rain since
9am
mm
Dir  Spd
km/h
Gust
km/h
Spd
kts
Gust
kts
17/10:00am 24.5 22.6 17.7 66 4.2 E 24 32 13 17 1015.7 - 0.0
17/09:30am 24.3 22.5 18.7 71 3.6 E 26 33 14 18 1015.5 - 0.0
17/09:00am 24.5 22.5 18.4 69 3.8 E 26 32 14 17 1015.3 1015.3 0.0
17/08:30am 24.9 22.8 17.1 62 4.8 E 24 33 13 18 1015.2 - 0.0
17/08:00am 23.6 21.3 16.6 65 4.3 E 24 30 13 16 1015.3 - 0.0
17/07:30am 24.0 23.3 18.2 70 3.6 E 19 39 10 21 1015.0 - 0.0
17/07:00am 23.2 22.5 17.4 70 3.6 E 17 30 9 16 1014.9 - 0.0
17/06:30am 22.7 21.1 17.4 72 3.3 E 22 35 12 19 1014.6 - 0.0
17/06:00am 23.1 22.0 17.3 70 3.6 E 19 28 10 15 1014.3 1014.3 0.0
17/05:30am 23.0 23.0 17.2 70 3.6 ESE 13 24 7 13 1014.2 - 0.0
17/05:00am 23.0 22.4 17.5 71 3.4 E 17 28 9 15 1014.3 - 0.0
17/04:30am 23.1 21.2 17.6 71 3.4 E 24 30 13 16 1014.3 - 0.0
17/04:00am 23.3 21.2 17.1 68 3.8 E 24 32 13 17 1014.3 - 0.0
17/03:30am 23.1 21.9 17.6 71 3.4 E 20 32 11 17 1014.5 - 0.0
17/03:00am 23.0 22.0 17.9 73 3.2 E 20 28 11 15 1014.7 1014.7 0.0
17/02:30am 23.1 22.5 17.6 71 3.4 ESE 17 30 9 16 1015.2 - 0.0
17/02:00am 22.6 23.1 17.5 73 3.2 E 11 17 6 9 1015.5 - 0.0
17/01:30am 22.5 23.3 17.4 73 3.1 SE 9 15 5 8 1016.0 - 0.0
17/01:00am 23.0 21.4 16.5 67 4.0 E 20 32 11 17 1016.3 - 0.0
17/12:30am 22.7 22.1 16.7 69 3.7 E 15 32 8 17 1016.5 - 0.0
17/12:00am 22.0 22.8 17.2 74 2.9 E 9 15 5 8 1016.8 1016.8 0.0
 
Date/Time
EDT
Temp
°C
App
Temp
°C
Dew
Point
°C
Rel
Hum
%
Delta-T
°C
Wind Press
QNH
hPa
Press
MSL
hPa
Rain since
9am
mm
Dir  Spd
km/h
Gust
km/h
Spd
kts
Gust
kts
16/11:30pm 21.7 22.3 16.9 74 2.9 SE 9 19 5 10 1017.2 - 0.0
16/11:00pm 21.9 19.7 16.8 73 3.1 ESE 24 46 13 25 1017.3 - 0.0
16/10:30pm 23.0 21.3 17.2 70 3.6 E 22 32 12 17 1017.4 - 0.0
16/10:00pm 23.5 20.1 15.8 62 4.6 E 28 37 15 20 1017.6 - 0.0
16/09:30pm 23.0 19.7 17.0 69 3.7 E 30 41 16 22 1017.5 - 0.0
16/09:00pm 23.1 21.0 17.1 69 3.7 E 24 39 13 21 1017.1 1017.1 0.0
16/08:30pm 23.0 20.6 16.5 67 4.0 E 24 35 13 19 1017.1 - 0.0
16/08:00pm 23.0 21.1 16.8 68 3.8 E 22 35 12 19 1016.8 - 0.0
16/07:30pm 23.0 20.8 17.0 69 3.7 E 24 35 13 19 1016.7 - 0.0
16/07:00pm 22.8 23.1 17.0 70 3.6 SE 11 20 6 11 1016.8 - 0.0
16/06:30pm 22.8 19.9 17.0 70 3.6 E 28 48 15 26 1016.5 - 0.0
16/06:29pm 22.8 19.8 16.8 69 3.7 E 28 48 15 26 1016.6 - 0.0
16/06:00pm 23.4 20.9 16.2 64 4.4 E 24 33 13 18 1016.4 1016.4 0.0
16/05:30pm 23.6 20.5 16.6 65 4.3 E 28 43 15 23 1016.3 - 0.0
16/05:00pm 24.1 20.6 15.6 59 5.1 E 28 37 15 20 1016.3 - 0.0
16/04:30pm 24.7 20.6 15.9 58 5.3 E 32 44 17 24 1016.3 - 0.0
16/04:00pm 25.0 20.5 15.3 55 5.8 E 33 44 18 24 1016.4 - 0.0
16/03:30pm 25.5 20.6 15.2 53 6.2 E 35 46 19 25 1016.6 - 0.0
16/03:00pm 25.4 19.8 13.3 47 7.1 E 35 46 19 25 1016.8 1016.8 0.0
16/02:30pm 25.8 21.2 14.6 50 6.7 E 32 46 17 25 1017.0 - 0.0
16/02:00pm 25.6 20.9 14.4 50 6.7 E 32 44 17 24 1017.4 - 0.0
16/01:30pm 25.6 21.4 14.7 51 6.5 E 30 46 16 25 1017.7 - 0.0
16/01:00pm 26.4 22.0 15.1 49 6.8 E 32 41 17 22 1017.9 - 0.0
16/12:30pm 25.5 20.7 14.6 51 6.5 E 33 46 18 25 1018.0 - 0.0
16/12:00pm 25.7 20.9 13.9 48 7.0 E 32 46 17 25 1018.4 1018.4 0.0
16/11:30am 25.9 22.0 15.6 53 6.3 E 30 41 16 22 1018.5 - 0.0
16/11:08am 25.8 21.7 14.9 51 6.5 E 30 48 16 26 1018.8 - 0.0
16/11:00am 25.2 20.3 14.3 50 6.5 E 33 44 18 24 1018.9 - 0.0
16/10:30am 25.2 20.3 14.3 50 6.5 E 33 48 18 26 1018.9 - 0.0
16/10:00am 25.2 20.4 14.0 49 6.6 E 32 44 17 24 1018.8 - 0.0
16/09:30am 25.0 19.8 14.5 52 6.2 E 35 50 19 27 1018.6 - 0.0
16/09:00am 24.8 20.6 14.6 53 6.1 E 30 44 16 24 1018.7 1018.7 0.0
16/08:30am 24.7 21.5 14.2 52 6.2 E 24 44 13 24 1018.8 - 0.0
16/08:00am 24.2 20.0 14.6 55 5.7 E 30 44 16 24 1018.5 - 0.0
16/07:30am 23.6 19.8 13.5 53 5.9 E 26 39 14 21 1018.2 - 0.0
16/07:00am 23.3 18.8 13.8 55 5.5 E 30 44 16 24 1018.0 - 0.0
16/06:30am 23.0 19.2 14.6 59 5.0 E 28 44 15 24 1017.8 - 0.0
16/06:07am 22.9 19.3 15.2 62 4.6 E 28 46 15 25 1017.5 - 0.0
16/06:00am 22.7 20.1 15.0 61 4.6 E 22 39 12 21 1017.6 1017.6 0.0
16/05:37am 22.7 19.0 15.0 61 4.6 E 28 50 15 27 1017.4 - 0.0
16/05:30am 22.7 18.9 14.8 61 4.7 E 28 43 15 23 1017.5 - 0.0
16/05:00am 22.6 20.1 15.2 63 4.4 E 22 46 12 25 1017.3 - 0.0
16/04:30am 22.5 19.0 14.6 61 4.7 E 26 41 14 22 1017.2 - 0.0
16/04:00am 22.5 19.0 14.6 61 4.7 E 26 41 14 22 1017.4 - 0.0
16/03:30am 22.5 18.8 13.8 58 5.1 E 26 43 14 23 1017.5 - 0.0
16/03:00am 22.7 19.1 14.3 59 4.9 E 26 39 14 21 1017.8 1017.8 0.0
16/02:30am 22.5 19.4 14.6 61 4.7 E 24 46 13 25 1018.0 - 0.0
16/02:26am 22.7 18.9 14.8 61 4.7 E 28 46 15 25 1017.9 - 0.0
16/02:00am 22.4 21.4 15.7 66 4.0 ESE 15 28 8 15 1018.2 - 0.0
16/01:30am 21.9 20.7 16.2 70 3.4 SE 17 24 9 13 1018.5 - 0.0
16/01:00am 23.1 19.9 15.2 61 4.7 E 26 44 14 24 1018.7 - 0.0
16/12:30am 23.3 19.8 13.5 54 5.7 E 24 46 13 25 1019.1 - 0.0
16/12:00am 23.3 18.6 14.8 59 5.0 E 33 44 18 24 1019.2 1019.2 0.0
 
Date/Time
EDT
Temp
°C
App
Temp
°C
Dew
Point
°C
Rel
Hum
%
Delta-T
°C
Wind Press
QNH
hPa
Press
MSL
hPa
Rain since
9am
mm
Dir  Spd
km/h
Gust
km/h
Spd
kts
Gust
kts
15/11:30pm 23.1 18.8 14.4 58 5.1 E 30 43 16 23 1019.4 - 0.0
15/11:13pm 22.9 18.3 13.4 55 5.5 E 30 48 16 26 1019.5 - 0.0
15/11:00pm 23.0 17.7 12.6 52 5.9 E 32 44 17 24 1019.5 - 0.0
15/10:30pm 22.9 17.8 13.7 56 5.4 E 33 44 18 24 1019.6 - 0.0
15/10:00pm 22.7 18.9 13.5 56 5.3 E 26 48 14 26 1019.9 - 0.0
15/09:40pm 23.0 18.2 12.9 53 5.8 E 30 48 16 26 1019.8 - 0.0
15/09:30pm 23.0 18.8 13.5 55 5.5 E 28 44 15 24 1019.7 - 0.0
15/09:00pm 23.0 18.8 13.5 55 5.5 E 28 48 15 26 1019.6 1019.6 0.0
15/08:30pm 23.1 18.3 14.1 57 5.3 E 32 52 17 28 1019.3 - 0.0
15/08:06pm 23.1 19.0 14.9 60 4.9 E 30 50 16 27 1019.0 - 0.0
15/08:00pm 23.1 18.5 14.7 59 5.0 E 32 44 17 24 1018.9 - 0.0
15/07:30pm 23.3 18.4 15.4 61 4.7 E 35 54 19 29 1018.5 - 0.0
15/07:00pm 23.5 19.3 16.1 63 4.5 E 33 52 18 28 1018.3 - 0.0
15/06:30pm 23.7 19.7 16.2 63 4.6 E 32 54 17 29 1018.1 - 0.0
15/06:25pm 23.7 19.5 15.7 61 4.8 E 32 54 17 29 1017.9 - 0.0
15/06:00pm 24.1 20.7 14.8 56 5.5 E 26 39 14 21 1017.8 1017.8 0.0
15/05:30pm 23.8 19.7 15.0 57 5.3 E 30 48 16 26 1017.8 - 0.0
15/05:00pm 24.0 21.4 15.8 60 5.0 ESE 24 50 13 27 1017.9 - 0.0
15/04:30pm 24.0 19.3 15.8 60 5.0 E 35 57 19 31 1017.5 - 0.0
15/04:00pm 24.2 20.6 16.2 61 4.9 E 30 48 16 26 1017.5 - 0.0
15/03:44pm 24.7 21.5 16.2 59 5.2 E 28 46 15 25 1017.5 - 0.0
15/03:30pm 25.2 21.0 14.6 51 6.3 E 30 46 16 25 1017.7 - 0.0
15/03:00pm 25.1 21.2 14.3 51 6.4 E 28 43 15 23 1017.8 1017.8 0.0
15/02:30pm 25.7 21.8 14.5 50 6.7 E 28 46 15 25 1017.8 - 0.0
15/02:00pm 26.0 21.7 14.5 49 6.9 E 30 54 16 29 1018.1 - 0.0
15/01:45pm 25.9 21.2 14.4 49 6.9 E 32 54 17 29 1018.1 - 0.0
15/01:42pm 25.7 21.4 14.5 50 6.7 E 30 44 16 24 1018.3 - 0.0
15/01:30pm 25.4 23.5 14.2 50 6.6 SSE 17 26 9 14 1018.6 - 0.0
15/01:03pm 25.9 22.0 15.6 53 6.3 E 30 48 16 26 1018.5 - 0.0
15/01:00pm 26.0 22.3 15.1 51 6.6 E 28 43 15 23 1018.6 - 0.0
15/12:30pm 26.5 23.6 15.2 49 6.8 E 24 46 13 25 1018.7 - 0.0
15/12:00pm 25.7 21.2 13.9 48 7.0 E 30 50 16 27 1018.7 1018.7 0.0
15/11:57am 26.1 22.3 14.6 49 6.9 E 28 48 15 26 1018.6 - 0.0
15/11:41am 26.0 21.9 14.8 50 6.7 E 30 46 16 25 1018.7 - 0.0
15/11:30am 25.9 25.3 14.7 50 6.7 S 11 24 6 13 1018.9 - 0.0
15/11:08am 26.1 21.9 15.8 53 6.3 E 32 52 17 28 1018.9 - 0.0
15/11:00am 25.7 25.5 14.8 51 6.5 S 9 13 5 7 1019.2 - 0.0
15/10:51am 25.2 21.6 15.2 54 6.0 ENE 28 43 15 23 1018.8 - 0.0
15/10:30am 25.5 25.2 14.3 50 6.7 ESE 9 20 5 11 1019.3 - 0.0
15/10:00am 25.2 23.0 14.9 52 6.2 E 20 30 11 16 1019.2 - 0.0
15/09:30am 25.1 22.4 15.7 56 5.7 ESE 24 43 13 23 1019.0 - 0.0
15/09:00am 24.0 21.6 15.5 59 5.1 ESE 22 33 12 18 1018.9 1018.9 29.0
15/08:30am 23.8 21.9 15.8 61 4.8 E 20 59 11 32 1019.1 - 29.0
15/08:00am 23.7 22.4 16.7 65 4.3 E 19 39 10 21 1018.9 - 29.0
15/07:30am 23.7 21.9 17.0 66 4.1 E 22 39 12 21 1018.6 - 29.0
15/07:00am 23.3 22.0 16.8 67 4.0 ESE 19 41 10 22 1018.4 - 29.0
15/06:30am 22.9 21.5 16.9 69 3.7 ESE 20 32 11 17 1018.3 - 29.0
15/06:00am 22.7 21.4 17.2 71 3.4 E 20 33 11 18 1017.9 1017.9 29.0
15/05:30am 23.1 21.4 17.3 70 3.6 ESE 22 48 12 26 1017.7 - 28.8
15/05:21am 23.1 20.4 17.6 71 3.4 E 28 48 15 26 1017.5 - 28.8
15/05:00am 23.1 22.2 17.8 72 3.3 E 19 28 10 15 1017.5 - 28.8
15/04:30am 23.0 22.2 17.2 70 3.6 SE 17 32 9 17 1017.2 - 28.8
15/04:00am 23.0 22.2 17.2 70 3.6 SE 17 30 9 16 1017.1 - 28.8
15/03:30am 23.0 22.4 17.5 71 3.4 ESE 17 28 9 15 1017.0 - 28.8
15/03:00am 23.1 22.5 17.6 71 3.4 ESE 17 30 9 16 1017.0 1017.0 28.8
15/02:30am 23.2 22.7 17.9 72 3.3 SE 17 24 9 13 1017.1 - 28.8
15/02:00am 23.5 23.3 18.6 74 3.1 SSE 17 28 9 15 1017.5 - 28.8
15/01:30am 23.4 22.7 18.3 73 3.2 ESE 19 35 10 19 1017.3 - 28.8
15/01:00am 23.3 23.4 18.4 74 3.1 ESE 15 26 8 14 1017.4 - 28.8
15/12:30am 23.4 24.0 18.5 74 3.1 SE 13 24 7 13 1017.7 - 28.8
15/12:00am 23.4 23.5 19.1 77 2.7 ESE 17 28 9 15 1017.7 1017.7 28.8
 
Date/Time
EDT
Temp
°C
App
Temp
°C
Dew
Point
°C
Rel
Hum
%
Delta-T
°C
Wind Press
QNH
hPa
Press
MSL
hPa
Rain since
9am
mm
Dir  Spd
km/h
Gust
km/h
Spd
kts
Gust
kts
14/11:30pm 23.5 21.5 19.2 77 2.7 E 28 39 15 21 1017.5 - 28.8
14/11:00pm 23.3 23.8 19.2 78 2.6 ESE 15 41 8 22 1017.5 - 28.8
14/10:30pm 23.3 24.0 19.7 80 2.3 SE 15 24 8 13 1017.5 - 28.8
14/10:00pm 22.7 23.0 19.5 82 2.0 SE 17 35 9 19 1017.4 - 28.8
14/09:49pm 22.7 23.3 19.5 82 2.0 SE 15 30 8 16 1017.4 - 28.8
14/09:38pm 22.8 22.8 19.8 83 1.9 E 19 28 10 15 1017.4 - 28.8
14/09:30pm 22.6 22.9 19.6 83 1.9 SE 17 30 9 16 1017.3 - 28.8
14/09:24pm 22.7 22.7 19.7 83 1.9 E 19 26 10 14 1017.2 - 28.6
14/09:09pm 22.8 22.7 20.0 84 1.8 SE 20 37 11 20 1017.1 - 28.6
14/09:00pm 22.7 23.5 19.9 84 1.8 ESE 15 24 8 13 1017.1 1017.1 28.6
14/08:59pm 22.8 23.3 20.1 85 1.7 ESE 17 30 9 16 1017.2 - 28.6
14/08:47pm 22.4 22.8 19.8 85 1.7 SE 17 32 9 17 1017.0 - 28.4
14/08:30pm 22.2 22.1 19.6 85 1.7 SE 19 33 10 18 1016.7 - 28.0
14/08:06pm 22.2 21.8 19.0 82 2.0 SE 19 32 10 17 1016.6 - 25.8
14/08:00pm 22.5 22.2 19.1 81 2.2 SE 19 32 10 17 1016.6 - 25.4
14/07:30pm 22.6 22.2 19.4 82 2.0 SE 20 35 11 19 1016.0 - 25.2
14/07:00pm 22.4 22.0 19.4 83 1.9 SE 20 39 11 21 1015.7 - 25.0
14/06:30pm 22.7 22.6 19.9 84 1.8 SE 20 37 11 20 1015.4 - 24.6
14/06:18pm 22.4 21.8 19.8 85 1.7 SE 22 39 12 21 1015.1 - 24.4
14/06:00pm 22.4 22.2 19.8 85 1.7 SE 20 32 11 17 1015.1 1015.1 23.8
14/05:30pm 22.6 21.0 20.1 86 1.6 SE 28 56 15 30 1014.6 - 22.6
14/05:25pm 22.5 20.9 20.0 86 1.6 SE 28 56 15 30 1014.4 - 22.4
14/05:00pm 22.6 21.4 20.1 86 1.6 ESE 26 43 14 23 1014.3 - 21.0
14/04:37pm 22.7 21.7 20.4 87 1.5 SE 26 39 14 21 1014.1 - 19.6
14/04:30pm 22.8 21.9 20.7 88 1.4 ESE 26 44 14 24 1014.0 - 19.2
14/04:00pm 22.6 22.0 20.5 88 1.4 ESE 24 46 13 25 1013.8 - 18.2
14/03:30pm 22.7 22.9 20.6 88 1.4 E 20 33 11 18 1014.0 - 14.6
14/03:00pm 23.6 24.2 21.1 86 1.6 ESE 19 26 10 14 1013.6 1013.6 8.0
14/02:30pm 24.0 24.6 21.1 84 1.9 SE 19 30 10 16 1013.6 - 6.2
14/02:00pm 24.0 24.8 20.7 82 2.2 SE 17 26 9 14 1013.8 - 3.6
14/01:43pm 25.4 25.6 20.6 75 3.1 E 20 33 11 18 1013.7 - 0.8
14/01:30pm 26.1 25.9 21.3 75 3.2 E 24 39 13 21 1013.5 - 0.8
14/01:00pm 25.8 27.0 22.1 80 2.5 E 19 28 10 15 1013.4 - 0.6
14/12:30pm 24.9 25.8 22.0 84 1.9 ESE 20 37 11 20 1013.1 - 0.6
14/12:00pm 24.5 25.0 22.0 86 1.7 ESE 22 33 12 18 1013.2 1013.2 0.6
14/11:30am 23.7 24.5 21.4 87 1.5 SE 19 32 10 17 1013.4 - 0.6
14/11:00am 24.7 28.2 22.2 86 1.7 S 7 11 4 6 1013.3 - 0.2
14/10:30am 24.7 28.4 22.2 86 1.7 E 6 15 3 8 1013.2 - 0.2

Other Formats:

Comma delimited format used in spreadsheet applications
http://www.bom.gov.au/fwo/IDN60801/IDN60801.94995.axf

JavaScript Object Notation format (JSON) in row-major order
http://www.bom.gov.au/fwo/IDN60801/IDN60801.94995.json